createdAt,value
2023-05-01T00:00:17.296Z,10.23
2023-05-01T00:01:16.861Z,10.20
2023-05-01T00:02:16.486Z,10.17
2023-05-01T00:03:17.130Z,10.17
2023-05-01T00:04:17.062Z,10.13
2023-05-01T00:05:17.246Z,10.14
2023-05-01T00:06:16.823Z,10.16
2023-05-01T00:07:16.498Z,10.10
2023-05-01T00:08:17.073Z,10.09
2023-05-01T00:09:16.638Z,10.09
2023-05-01T00:10:17.197Z,10.13
2023-05-01T00:11:16.725Z,10.10
2023-05-01T00:12:16.950Z,10.09
2023-05-01T00:13:16.512Z,10.08
2023-05-01T00:14:17.057Z,10.05
2023-05-01T00:15:16.588Z,10.06
2023-05-01T00:16:17.282Z,10.05
2023-05-01T00:17:16.987Z,10.02
2023-05-01T00:18:16.631Z,10.00
2023-05-01T00:19:16.352Z,10.06
2023-05-01T00:20:16.910Z,10.06
2023-05-01T00:21:16.530Z,10.05
2023-05-01T00:22:17.306Z,10.09
2023-05-01T00:23:16.838Z,10.06
2023-05-01T00:24:16.404Z,10.05
2023-05-01T00:25:16.944Z,10.05
2023-05-01T00:26:16.473Z,10.02
2023-05-01T00:27:17.016Z,10.00
2023-05-01T00:28:16.581Z,9.99
2023-05-01T00:29:17.130Z,9.98
2023-05-01T00:30:16.701Z,9.98
2023-05-01T00:31:17.250Z,9.95
2023-05-01T00:32:16.449Z,9.96
2023-05-01T00:33:17.127Z,9.98
2023-05-01T00:34:16.677Z,9.96
2023-05-01T00:35:17.221Z,9.92
2023-05-01T00:36:16.775Z,9.92
2023-05-01T00:37:16.354Z,9.89
2023-05-01T00:38:16.934Z,9.88
2023-05-01T00:39:16.490Z,9.91
2023-05-01T00:40:17.043Z,9.89
2023-05-01T00:41:16.635Z,9.88
2023-05-01T00:42:16.939Z,9.88
2023-05-01T00:43:16.501Z,9.86
2023-05-01T00:44:17.049Z,9.86
2023-05-01T00:45:16.612Z,9.93
2023-05-01T00:46:17.189Z,9.91
2023-05-01T00:47:16.804Z,9.88
2023-05-01T00:48:16.381Z,9.85
2023-05-01T00:49:16.976Z,9.86
2023-05-01T00:50:16.555Z,9.88
2023-05-01T00:51:17.143Z,9.84
2023-05-01T00:52:16.417Z,9.82
2023-05-01T00:53:16.981Z,9.84
2023-05-01T00:54:16.539Z,9.85
2023-05-01T00:55:17.102Z,9.81
2023-05-01T00:56:16.635Z,9.80
2023-05-01T00:57:17.196Z,9.78
2023-05-01T00:58:16.773Z,9.75
2023-05-01T00:59:16.311Z,9.76
2023-05-01T01:00:16.867Z,9.76
2023-05-01T01:01:16.455Z,9.78
2023-05-01T01:02:17.098Z,9.82
2023-05-01T01:03:16.691Z,9.82
2023-05-01T01:04:17.319Z,9.85
2023-05-01T01:05:17.016Z,9.85
2023-05-01T01:06:16.594Z,9.84
2023-05-01T01:07:17.261Z,9.80
2023-05-01T01:08:16.810Z,9.81
2023-05-01T01:09:16.417Z,9.75
2023-05-01T01:10:16.965Z,9.75
2023-05-01T01:11:16.512Z,9.76
2023-05-01T01:12:16.755Z,9.78
2023-05-01T01:13:16.315Z,9.78
2023-05-01T01:14:16.961Z,9.80
2023-05-01T01:15:16.567Z,9.81
2023-05-01T01:16:17.159Z,9.78
2023-05-01T01:17:16.907Z,9.75
2023-05-01T01:18:16.573Z,9.78
2023-05-01T01:19:17.201Z,9.80
2023-05-01T01:20:16.780Z,9.75
2023-05-01T01:21:16.337Z,9.78
2023-05-01T01:22:17.172Z,9.80
2023-05-01T01:23:16.725Z,9.80
2023-05-01T01:24:17.279Z,9.78
2023-05-01T01:25:16.836Z,9.76
2023-05-01T01:26:16.365Z,9.74
2023-05-01T01:27:16.892Z,9.74
2023-05-01T01:28:16.440Z,9.74
2023-05-01T01:29:17.142Z,9.81
2023-05-01T01:30:16.688Z,9.85
2023-05-01T01:31:17.263Z,9.84
2023-05-01T01:32:16.499Z,9.85
2023-05-01T01:33:17.083Z,9.85
2023-05-01T01:34:16.646Z,9.81
2023-05-01T01:35:17.203Z,9.81
2023-05-01T01:36:16.740Z,9.81
2023-05-01T01:37:17.321Z,9.80
2023-05-01T01:38:16.950Z,9.80
2023-05-01T01:39:16.633Z,9.80
2023-05-01T01:40:17.185Z,9.80
2023-05-01T01:41:16.744Z,9.80
2023-05-01T01:42:16.866Z,9.85
2023-05-01T01:43:16.415Z,9.84
2023-05-01T01:44:16.971Z,9.81
2023-05-01T01:45:16.527Z,9.81
2023-05-01T01:46:17.118Z,9.84
2023-05-01T01:47:16.797Z,9.81
2023-05-01T01:48:16.342Z,9.80
2023-05-01T01:49:18.109Z,9.76
2023-05-01T01:50:16.436Z,9.76
2023-05-01T01:51:16.989Z,9.76
2023-05-01T01:52:17.186Z,9.80
2023-05-01T01:53:16.720Z,9.84
2023-05-01T01:54:17.258Z,9.80
2023-05-01T01:55:16.808Z,9.80
2023-05-01T01:56:16.361Z,9.80
2023-05-01T01:57:16.923Z,9.78
2023-05-01T01:58:16.503Z,9.76
2023-05-01T01:59:17.060Z,9.78
2023-05-01T02:00:16.668Z,9.81
2023-05-01T02:01:17.265Z,9.88
2023-05-01T02:02:17.239Z,9.86
2023-05-01T02:03:16.887Z,9.85
2023-05-01T02:04:16.650Z,9.84
2023-05-01T02:05:16.537Z,9.81
2023-05-01T02:06:17.107Z,9.84
2023-05-01T02:07:16.884Z,9.81
2023-05-01T02:08:16.436Z,9.81
2023-05-01T02:09:16.964Z,9.81
2023-05-01T02:10:16.512Z,9.80
2023-05-01T02:11:17.068Z,9.80
2023-05-01T02:12:16.401Z,9.85
2023-05-01T02:13:16.954Z,9.82
2023-05-01T02:14:16.529Z,9.81
2023-05-01T02:15:17.103Z,9.84
2023-05-01T02:16:16.681Z,9.81
2023-05-01T02:17:17.321Z,9.84
2023-05-01T02:18:16.919Z,9.84
2023-05-01T02:19:16.494Z,9.86
2023-05-01T02:20:17.080Z,9.85
2023-05-01T02:21:16.646Z,9.85
2023-05-01T02:22:16.535Z,9.82
2023-05-01T02:23:17.098Z,9.82
2023-05-01T02:24:16.654Z,9.84
2023-05-01T02:25:17.247Z,9.80
2023-05-01T02:26:16.803Z,9.80
2023-05-01T02:27:16.372Z,9.76
2023-05-01T02:28:16.957Z,9.72
2023-05-01T02:29:16.543Z,9.80
2023-05-01T02:30:17.105Z,9.80
2023-05-01T02:31:16.661Z,9.78
2023-05-01T02:32:16.412Z,9.75
2023-05-01T02:33:16.942Z,9.72
2023-05-01T02:34:16.464Z,9.72
2023-05-01T02:35:17.006Z,9.69
2023-05-01T02:36:16.561Z,9.68
2023-05-01T02:37:17.100Z,9.68
2023-05-01T02:38:16.693Z,9.66
2023-05-01T02:39:17.314Z,9.62
2023-05-01T02:40:16.890Z,9.62
2023-05-01T02:41:16.507Z,9.61
2023-05-01T02:42:17.228Z,9.58
2023-05-01T02:43:16.790Z,9.57
2023-05-01T02:44:16.343Z,9.55
2023-05-01T02:45:16.951Z,9.54
2023-05-01T02:46:16.527Z,9.53
2023-05-01T02:47:17.162Z,9.51
2023-05-01T02:48:16.854Z,9.50
2023-05-01T02:49:16.676Z,9.46
2023-05-01T02:50:17.242Z,9.44
2023-05-01T02:51:16.817Z,9.40
2023-05-01T02:52:16.396Z,9.43
2023-05-01T02:53:16.966Z,9.43
2023-05-01T02:54:16.517Z,9.41
2023-05-01T02:55:17.100Z,9.40
2023-05-01T02:56:16.662Z,9.38
2023-05-01T02:57:17.240Z,9.37
2023-05-01T02:58:16.798Z,9.34
2023-05-01T02:59:16.395Z,9.33
2023-05-01T03:00:16.973Z,9.38
2023-05-01T03:01:16.594Z,9.37
2023-05-01T03:02:16.382Z,9.31
2023-05-01T03:03:16.922Z,9.34
2023-05-01T03:04:16.643Z,9.36
2023-05-01T03:05:17.227Z,9.34
2023-05-01T03:06:16.801Z,9.33
2023-05-01T03:07:16.398Z,9.33
2023-05-01T03:08:16.939Z,9.34
2023-05-01T03:09:16.505Z,9.30
2023-05-01T03:10:17.080Z,9.30
2023-05-01T03:11:16.622Z,9.29
2023-05-01T03:12:16.791Z,9.30
2023-05-01T03:13:16.360Z,9.30
2023-05-01T03:14:16.905Z,9.27
2023-05-01T03:15:16.481Z,9.30
2023-05-01T03:16:17.063Z,9.31
2023-05-01T03:17:16.717Z,9.29
2023-05-01T03:18:17.296Z,9.27
2023-05-01T03:19:16.863Z,9.30
2023-05-01T03:20:16.398Z,9.27
2023-05-01T03:21:16.965Z,9.27
2023-05-01T03:22:17.291Z,9.25
2023-05-01T03:23:16.896Z,9.27
2023-05-01T03:24:16.461Z,9.26
2023-05-01T03:25:17.057Z,9.20
2023-05-01T03:26:16.597Z,9.18
2023-05-01T03:27:17.167Z,9.18
2023-05-01T03:28:16.725Z,9.22
2023-05-01T03:29:17.298Z,9.23
2023-05-01T03:30:16.855Z,9.22
2023-05-01T03:31:16.383Z,9.20
2023-05-01T03:32:17.096Z,9.15
2023-05-01T03:33:16.756Z,9.13
2023-05-01T03:34:17.286Z,9.15
2023-05-01T03:35:16.877Z,9.15
2023-05-01T03:36:16.499Z,9.12
2023-05-01T03:37:17.073Z,9.09
2023-05-01T03:38:16.643Z,9.08
2023-05-01T03:39:17.177Z,9.05
2023-05-01T03:40:16.829Z,9.03
2023-05-01T03:41:16.401Z,9.02
2023-05-01T03:42:17.327Z,9.08
2023-05-01T03:43:16.863Z,9.05
2023-05-01T03:44:16.393Z,9.06
2023-05-01T03:45:16.920Z,9.08
2023-05-01T03:46:16.554Z,9.05
2023-05-01T03:47:17.272Z,9.03
2023-05-01T03:48:16.802Z,8.99
2023-05-01T03:49:16.375Z,9.01
2023-05-01T03:50:16.955Z,9.06
2023-05-01T03:51:16.505Z,9.03
2023-05-01T03:52:17.133Z,9.01
2023-05-01T03:53:16.721Z,8.99
2023-05-01T03:54:17.315Z,8.99
2023-05-01T03:55:16.925Z,8.99
2023-05-01T03:56:16.529Z,8.99
2023-05-01T03:57:17.060Z,8.98
2023-05-01T03:58:16.660Z,8.99
2023-05-01T03:59:17.229Z,8.98
2023-05-01T04:00:16.781Z,8.98
2023-05-01T04:01:16.344Z,8.95
2023-05-01T04:02:16.419Z,8.95
2023-05-01T04:03:17.150Z,8.95
2023-05-01T04:04:16.954Z,8.96
2023-05-01T04:05:16.617Z,8.92
2023-05-01T04:06:17.517Z,8.95
2023-05-01T04:07:17.262Z,8.94
2023-05-01T04:08:16.858Z,8.90
2023-05-01T04:09:16.444Z,8.92
2023-05-01T04:10:17.011Z,8.92
2023-05-01T04:11:16.586Z,8.92
2023-05-01T04:12:17.264Z,8.91
2023-05-01T04:13:16.801Z,8.88
2023-05-01T04:14:16.373Z,8.90
2023-05-01T04:15:16.929Z,8.88
2023-05-01T04:16:16.494Z,8.85
2023-05-01T04:17:17.133Z,8.84
2023-05-01T04:18:16.736Z,8.81
2023-05-01T04:19:16.372Z,8.81
2023-05-01T04:20:16.979Z,8.84
2023-05-01T04:21:16.547Z,8.82
2023-05-01T04:22:17.349Z,8.82
2023-05-01T04:23:16.901Z,8.82
2023-05-01T04:24:16.450Z,8.84
2023-05-01T04:25:17.013Z,8.81
2023-05-01T04:26:16.546Z,8.82
2023-05-01T04:27:17.131Z,8.81
2023-05-01T04:28:16.662Z,8.79
2023-05-01T04:29:17.198Z,8.82
2023-05-01T04:30:16.792Z,8.81
2023-05-01T04:31:16.368Z,8.82
2023-05-01T04:32:17.125Z,8.82
2023-05-01T04:33:16.681Z,8.85
2023-05-01T04:34:17.268Z,8.90
2023-05-01T04:35:16.843Z,8.85
2023-05-01T04:36:16.424Z,8.88
2023-05-01T04:37:16.993Z,8.91
2023-05-01T04:38:16.538Z,8.95
2023-05-01T04:39:17.128Z,8.92
2023-05-01T04:40:16.764Z,8.96
2023-05-01T04:41:17.312Z,8.99
2023-05-01T04:42:17.055Z,9.03
2023-05-01T04:43:16.595Z,9.06
2023-05-01T04:44:17.112Z,8.99
2023-05-01T04:45:16.689Z,8.96
2023-05-01T04:46:17.304Z,9.02
2023-05-01T04:47:16.950Z,9.08
2023-05-01T04:48:16.564Z,9.09
2023-05-01T04:49:17.213Z,9.12
2023-05-01T04:50:16.749Z,9.15
2023-05-01T04:51:17.323Z,9.27
2023-05-01T04:52:16.829Z,9.25
2023-05-01T04:53:16.392Z,9.18
2023-05-01T04:54:16.931Z,9.26
2023-05-01T04:55:16.484Z,9.25
2023-05-01T04:56:17.034Z,9.31
2023-05-01T04:57:16.558Z,9.41
2023-05-01T04:58:17.087Z,9.48
2023-05-01T04:59:16.621Z,9.47
2023-05-01T05:00:17.176Z,9.50
2023-05-01T05:01:16.792Z,9.58
2023-05-01T05:02:17.203Z,9.62
2023-05-01T05:03:17.034Z,9.61
2023-05-01T05:04:16.833Z,9.62
2023-05-01T05:05:16.391Z,9.68
2023-05-01T05:06:17.067Z,9.76
2023-05-01T05:07:16.783Z,9.93
2023-05-01T05:08:16.353Z,9.99
2023-05-01T05:09:18.719Z,10.08
2023-05-01T05:10:16.775Z,10.28
2023-05-01T05:11:16.350Z,9.95
2023-05-01T05:12:17.329Z,9.92
2023-05-01T05:13:16.923Z,10.08
2023-05-01T05:14:16.472Z,10.30
2023-05-01T05:15:17.037Z,10.37
2023-05-01T05:16:16.625Z,10.47
2023-05-01T05:17:17.301Z,10.55
2023-05-01T05:18:16.955Z,10.64
2023-05-01T05:19:16.591Z,10.51
2023-05-01T05:20:17.148Z,10.54
2023-05-01T05:21:16.682Z,10.49
2023-05-01T05:22:17.262Z,10.54
2023-05-01T05:23:16.803Z,10.72
2023-05-01T05:24:16.355Z,10.83
2023-05-01T05:25:16.912Z,10.89
2023-05-01T05:26:16.454Z,10.70
2023-05-01T05:27:16.990Z,10.75
2023-05-01T05:28:16.541Z,10.75
2023-05-01T05:29:17.084Z,10.57
2023-05-01T05:30:16.621Z,10.54
2023-05-01T05:31:17.173Z,10.72
2023-05-01T05:32:17.019Z,10.72
2023-05-01T05:33:16.802Z,10.86
2023-05-01T05:34:16.421Z,10.68
2023-05-01T05:35:17.029Z,10.74
2023-05-01T05:36:16.625Z,10.81
2023-05-01T05:37:17.176Z,11.02
2023-05-01T05:38:16.720Z,11.09
2023-05-01T05:39:17.263Z,11.16
2023-05-01T05:40:16.796Z,11.23
2023-05-01T05:41:16.367Z,11.23
2023-05-01T05:42:16.805Z,10.89
2023-05-01T05:43:16.376Z,10.68
2023-05-01T05:44:16.927Z,10.68
2023-05-01T05:45:16.494Z,10.54
2023-05-01T05:46:17.135Z,10.74
2023-05-01T05:47:16.859Z,10.79
2023-05-01T05:48:16.440Z,10.76
2023-05-01T05:49:17.152Z,10.96
2023-05-01T05:50:16.724Z,11.11
2023-05-01T05:51:17.288Z,11.17
2023-05-01T05:52:17.132Z,11.14
2023-05-01T05:53:16.727Z,11.13
2023-05-01T05:54:17.261Z,11.27
2023-05-01T05:55:16.871Z,11.16
2023-05-01T05:56:16.428Z,11.16
2023-05-01T05:57:17.019Z,11.30
2023-05-01T05:58:16.550Z,11.37
2023-05-01T05:59:17.475Z,11.48
2023-05-01T06:00:17.172Z,11.57
2023-05-01T06:01:16.741Z,11.62
2023-05-01T06:02:17.142Z,11.85
2023-05-01T06:03:16.893Z,12.13
2023-05-01T06:04:16.726Z,12.12
2023-05-01T06:05:16.515Z,12.06
2023-05-01T06:06:17.186Z,12.12
2023-05-01T06:07:16.758Z,12.24
2023-05-01T06:08:17.287Z,12.16
2023-05-01T06:09:16.845Z,12.48
2023-05-01T06:10:16.401Z,12.48
2023-05-01T06:11:16.935Z,12.45
2023-05-01T06:12:16.766Z,12.31
2023-05-01T06:13:16.971Z,12.48
2023-05-01T06:14:16.519Z,12.58
2023-05-01T06:15:17.161Z,12.38
2023-05-01T06:16:16.797Z,12.40
2023-05-01T06:17:16.479Z,12.48
2023-05-01T06:18:17.086Z,12.53
2023-05-01T06:19:16.923Z,12.41
2023-05-01T06:20:16.499Z,12.45
2023-05-01T06:21:17.056Z,12.07
2023-05-01T06:22:17.132Z,12.30
2023-05-01T06:23:16.658Z,12.60
2023-05-01T06:24:17.181Z,12.75
2023-05-01T06:25:16.743Z,12.66
2023-05-01T06:26:16.329Z,11.90
2023-05-01T06:27:16.896Z,11.89
2023-05-01T06:28:16.458Z,12.08
2023-05-01T06:29:17.000Z,12.24
2023-05-01T06:30:16.559Z,12.38
2023-05-01T06:31:17.147Z,12.56
2023-05-01T06:32:16.724Z,12.63
2023-05-01T06:33:17.279Z,12.58
2023-05-01T06:34:16.794Z,12.59
2023-05-01T06:35:16.347Z,12.75
2023-05-01T06:36:16.885Z,12.66
2023-05-01T06:37:16.423Z,12.56
2023-05-01T06:38:16.982Z,12.49
2023-05-01T06:39:16.543Z,12.56
2023-05-01T06:40:17.143Z,12.63
2023-05-01T06:41:16.737Z,12.69
2023-05-01T06:42:16.478Z,12.82
2023-05-01T06:43:17.077Z,12.63
2023-05-01T06:44:16.642Z,12.40
2023-05-01T06:45:17.228Z,12.30
2023-05-01T06:46:16.794Z,12.63
2023-05-01T06:47:16.487Z,12.75
2023-05-01T06:48:17.039Z,12.82
2023-05-01T06:49:16.578Z,12.88
2023-05-01T06:50:17.177Z,12.92
2023-05-01T06:51:16.743Z,13.31
2023-05-01T06:52:16.371Z,13.60
2023-05-01T06:53:16.932Z,13.73
2023-05-01T06:54:16.499Z,14.00
2023-05-01T06:55:17.068Z,14.29
2023-05-01T06:56:16.606Z,14.48
2023-05-01T06:57:17.194Z,14.65
2023-05-01T06:59:16.951Z,14.42
2023-05-01T07:00:16.539Z,14.46
2023-05-01T07:01:17.112Z,14.29
2023-05-01T07:02:16.759Z,14.00
2023-05-01T07:03:16.564Z,13.76
2023-05-01T07:04:17.224Z,13.35
2023-05-01T07:05:16.771Z,13.48
2023-05-01T07:06:16.367Z,13.63
2023-05-01T07:07:17.028Z,13.59
2023-05-01T07:08:16.594Z,13.73
2023-05-01T07:09:17.144Z,13.56
2023-05-01T07:10:16.686Z,13.48
2023-05-01T07:11:17.255Z,13.42
2023-05-01T07:12:17.257Z,13.17
2023-05-01T07:13:16.838Z,13.25
2023-05-01T07:14:16.427Z,13.48
2023-05-01T07:15:16.984Z,13.48
2023-05-01T07:16:16.574Z,13.66
2023-05-01T07:17:17.216Z,13.70
2023-05-01T07:18:16.782Z,13.58
2023-05-01T07:19:16.354Z,13.55
2023-05-01T07:20:16.917Z,13.41
2023-05-01T07:21:16.471Z,13.77
2023-05-01T07:22:17.058Z,13.93
2023-05-01T07:23:16.630Z,14.27
2023-05-01T07:24:17.176Z,14.49
2023-05-01T07:25:16.702Z,14.98
2023-05-01T07:26:17.239Z,15.27
2023-05-01T07:27:16.798Z,15.00
2023-05-01T07:28:16.374Z,14.77
2023-05-01T07:29:16.924Z,14.97
2023-05-01T07:30:16.511Z,15.70
2023-05-01T07:31:17.140Z,15.87
2023-05-01T07:32:16.996Z,16.08
2023-05-01T07:33:16.796Z,16.21
2023-05-01T07:34:16.425Z,15.92
2023-05-01T07:35:16.955Z,16.00
2023-05-01T07:36:16.520Z,16.47
2023-05-01T07:37:17.068Z,16.87
2023-05-01T07:38:16.625Z,17.21
2023-05-01T07:39:17.184Z,16.73
2023-05-01T07:40:16.754Z,16.36
2023-05-01T07:41:17.313Z,15.59
2023-05-01T07:42:16.494Z,15.56
2023-05-01T07:43:17.046Z,15.41
2023-05-01T07:44:16.655Z,15.95
2023-05-01T07:45:17.326Z,16.08
2023-05-01T07:46:17.039Z,16.43
2023-05-01T07:47:17.110Z,16.42
2023-05-01T07:48:16.668Z,16.56
2023-05-01T07:49:16.312Z,17.16
2023-05-01T07:50:16.898Z,17.57
2023-05-01T07:51:16.481Z,17.60
2023-05-01T07:52:17.011Z,17.54
2023-05-01T07:53:16.598Z,17.56
2023-05-01T07:54:17.148Z,17.98
2023-05-01T07:55:16.732Z,18.16
2023-05-01T07:56:17.295Z,17.69
2023-05-01T07:57:16.846Z,17.89
2023-05-01T07:58:16.419Z,18.02
2023-05-01T07:59:16.980Z,18.57
2023-05-01T08:00:16.532Z,19.01
2023-05-01T08:01:17.093Z,19.01
2023-05-01T08:02:16.436Z,18.34
2023-05-01T08:03:17.169Z,18.66
2023-05-01T08:04:17.198Z,18.78
2023-05-01T08:05:17.046Z,18.72
2023-05-01T08:06:16.596Z,19.10
2023-05-01T08:07:17.255Z,19.25
2023-05-01T08:08:16.814Z,19.23
2023-05-01T08:09:16.367Z,19.16
2023-05-01T08:10:16.927Z,19.27
2023-05-01T08:11:16.514Z,19.29
2023-05-01T08:12:16.813Z,18.78
2023-05-01T08:13:16.368Z,19.37
2023-05-01T08:14:16.913Z,19.41
2023-05-01T08:15:16.517Z,18.17
2023-05-01T08:16:17.528Z,17.71
2023-05-01T08:17:17.112Z,17.99
2023-05-01T08:18:16.688Z,17.84
2023-05-01T08:19:17.259Z,18.49
2023-05-01T08:20:16.828Z,18.34
2023-05-01T08:21:16.490Z,17.60
2023-05-01T08:22:17.069Z,16.62
2023-05-01T08:23:16.622Z,16.36
2023-05-01T08:24:17.195Z,16.68
2023-05-01T08:25:16.761Z,17.67
2023-05-01T08:26:17.303Z,18.06
2023-05-01T08:27:16.855Z,17.91
2023-05-01T08:28:16.418Z,18.29
2023-05-01T08:29:16.996Z,18.95
2023-05-01T08:30:16.560Z,19.01
2023-05-01T08:31:17.167Z,19.01
2023-05-01T08:32:17.325Z,18.94
2023-05-01T08:33:16.866Z,17.95
2023-05-01T08:34:16.420Z,18.47
2023-05-01T08:35:17.014Z,18.89
2023-05-01T08:36:16.566Z,19.05
2023-05-01T08:37:17.152Z,19.41
2023-05-01T08:38:16.687Z,19.40
2023-05-01T08:39:17.260Z,18.72
2023-05-01T08:40:16.799Z,17.54
2023-05-01T08:41:16.371Z,17.81
2023-05-01T08:42:16.400Z,18.01
2023-05-01T08:43:16.976Z,17.64
2023-05-01T08:44:16.516Z,17.69
2023-05-01T08:45:17.094Z,17.73
2023-05-01T08:46:16.664Z,17.69
2023-05-01T08:47:17.299Z,17.84
2023-05-01T08:48:16.930Z,17.78
2023-05-01T08:49:16.462Z,18.06
2023-05-01T08:50:17.001Z,18.33
2023-05-01T08:51:16.540Z,18.44
2023-05-01T08:52:16.708Z,18.56
2023-05-01T08:53:17.285Z,18.44
2023-05-01T08:54:16.877Z,18.61
2023-05-01T08:55:16.448Z,18.71
2023-05-01T08:56:17.028Z,17.84
2023-05-01T08:57:16.595Z,16.49
2023-05-01T08:58:17.150Z,16.32
2023-05-01T08:59:16.727Z,16.18
2023-05-01T09:00:17.280Z,16.68
2023-05-01T09:01:16.924Z,16.39
2023-05-01T09:02:16.607Z,16.57
2023-05-01T09:03:17.239Z,16.29
2023-05-01T09:04:17.036Z,16.14
2023-05-01T09:05:16.739Z,16.40
2023-05-01T09:06:17.336Z,16.91
2023-05-01T09:07:16.991Z,17.04
2023-05-01T09:08:16.536Z,16.62
2023-05-01T09:09:17.106Z,16.35
2023-05-01T09:10:16.659Z,16.52
2023-05-01T09:11:17.213Z,16.40
2023-05-01T09:12:16.933Z,16.90
2023-05-01T09:13:16.481Z,16.52
2023-05-01T09:14:17.041Z,16.24
2023-05-01T09:15:16.596Z,15.76
2023-05-01T09:16:17.224Z,16.22
2023-05-01T09:17:16.842Z,16.32
2023-05-01T09:18:16.438Z,16.04
2023-05-01T09:19:17.079Z,16.24
2023-05-01T09:20:16.600Z,16.60
2023-05-01T09:21:17.150Z,16.66
2023-05-01T09:22:17.047Z,16.86
2023-05-01T09:23:16.647Z,16.94
2023-05-01T09:24:17.190Z,16.66
2023-05-01T09:25:16.772Z,16.99
2023-05-01T09:26:16.328Z,17.15
2023-05-01T09:27:16.886Z,17.02
2023-05-01T09:28:16.463Z,17.19
2023-05-01T09:29:17.025Z,16.59
2023-05-01T09:30:16.600Z,16.49
2023-05-01T09:31:17.206Z,16.02
2023-05-01T09:32:16.795Z,16.18
2023-05-01T09:33:16.565Z,16.19
2023-05-01T09:34:16.319Z,16.35
2023-05-01T09:35:16.874Z,16.52
2023-05-01T09:36:16.450Z,16.45
2023-05-01T09:37:16.989Z,16.54
2023-05-01T09:38:16.526Z,16.63
2023-05-01T09:39:17.098Z,16.67
2023-05-01T09:40:16.628Z,16.75
2023-05-01T09:41:17.238Z,16.19
2023-05-01T09:42:16.413Z,16.37
2023-05-01T09:43:17.043Z,16.25
2023-05-01T09:44:16.593Z,16.07
2023-05-01T09:45:17.134Z,16.45
2023-05-01T09:46:16.687Z,16.50
2023-05-01T09:47:16.401Z,16.52
2023-05-01T09:48:16.982Z,16.57
2023-05-01T09:49:16.588Z,16.80
2023-05-01T09:50:17.136Z,16.90
2023-05-01T09:51:16.681Z,16.90
2023-05-01T09:52:17.025Z,16.57
2023-05-01T09:53:16.609Z,16.47
2023-05-01T09:54:17.154Z,16.39
2023-05-01T09:55:16.745Z,16.57
2023-05-01T09:56:16.350Z,16.53
2023-05-01T09:57:16.903Z,16.35
2023-05-01T09:58:16.480Z,16.46
2023-05-01T09:59:17.067Z,16.54
2023-05-01T10:00:16.701Z,16.50
2023-05-01T10:01:17.289Z,16.31
2023-05-01T10:02:17.204Z,16.15
2023-05-01T10:03:16.888Z,16.32
2023-05-01T10:04:16.678Z,16.50
2023-05-01T10:05:17.237Z,16.75
2023-05-01T10:06:16.841Z,16.84
2023-05-01T10:07:16.470Z,17.01
2023-05-01T10:08:17.076Z,17.15
2023-05-01T10:09:16.920Z,17.14
2023-05-01T10:10:17.226Z,16.70
2023-05-01T10:11:16.896Z,16.87
2023-05-01T10:12:17.236Z,16.92
2023-05-01T10:13:16.813Z,17.04
2023-05-01T10:14:16.362Z,16.63
2023-05-01T10:15:24.415Z,16.57
2023-05-01T10:16:16.428Z,16.57
2023-05-01T10:17:17.119Z,16.49
2023-05-01T10:18:16.801Z,16.22
2023-05-01T10:19:16.481Z,16.15
2023-05-01T10:20:17.153Z,16.14
2023-05-01T10:21:16.808Z,16.14
2023-05-01T10:22:16.445Z,16.28
2023-05-01T10:23:16.981Z,16.39
2023-05-01T10:24:16.685Z,16.19
2023-05-01T10:25:16.854Z,16.29
2023-05-01T10:26:16.401Z,16.47
2023-05-01T10:27:16.990Z,16.15
2023-05-01T10:28:16.595Z,16.02
2023-05-01T10:29:17.136Z,15.98
2023-05-01T10:30:16.806Z,16.28
2023-05-01T10:31:16.536Z,16.35
2023-05-01T10:32:16.571Z,15.91
2023-05-01T10:33:17.150Z,15.66
2023-05-01T10:34:16.869Z,15.59
2023-05-01T10:35:16.423Z,15.53
2023-05-01T10:36:16.970Z,15.50
2023-05-01T10:37:16.550Z,15.52
2023-05-01T10:38:17.115Z,15.55
2023-05-01T10:39:16.720Z,15.53
2023-05-01T10:40:17.271Z,15.66
2023-05-01T10:41:16.825Z,15.70
2023-05-01T10:42:16.748Z,15.62
2023-05-01T10:43:17.322Z,15.62
2023-05-01T10:44:16.984Z,15.55
2023-05-01T10:45:16.513Z,15.47
2023-05-01T10:46:17.086Z,15.46
2023-05-01T10:47:16.706Z,15.27
2023-05-01T10:48:17.301Z,15.22
2023-05-01T10:49:16.848Z,15.36
2023-05-01T10:50:16.418Z,15.47
2023-05-01T10:51:17.015Z,15.43
2023-05-01T10:52:16.602Z,15.31
2023-05-01T10:53:17.139Z,15.14
2023-05-01T10:54:16.719Z,15.02
2023-05-01T10:55:17.248Z,14.83
2023-05-01T10:56:16.825Z,14.82
2023-05-01T10:57:16.375Z,14.66
2023-05-01T10:58:17.076Z,14.38
2023-05-01T10:59:16.621Z,14.14
2023-05-01T11:00:17.193Z,14.03
2023-05-01T11:01:16.746Z,14.01
2023-05-01T11:02:17.320Z,13.52
2023-05-01T11:03:17.182Z,13.22
2023-05-01T11:04:16.803Z,13.14
2023-05-01T11:05:18.457Z,13.04
2023-05-01T11:06:17.248Z,12.77
2023-05-01T11:07:17.058Z,12.75
2023-05-01T11:08:16.850Z,12.65
2023-05-01T11:09:16.387Z,12.66
2023-05-01T11:10:17.088Z,12.65
2023-05-01T11:11:16.769Z,12.56
2023-05-01T11:12:17.239Z,12.52
2023-05-01T11:13:16.803Z,12.48
2023-05-01T11:14:16.388Z,12.47
2023-05-01T11:15:16.948Z,12.37
2023-05-01T11:16:16.520Z,12.28
2023-05-01T11:17:17.170Z,12.20
2023-05-01T11:18:16.779Z,12.21
2023-05-01T11:19:16.469Z,12.14
2023-05-01T11:20:17.092Z,12.08
2023-05-01T11:21:16.640Z,11.94
2023-05-01T11:22:16.796Z,11.86
2023-05-01T11:23:16.367Z,11.88
2023-05-01T11:24:16.937Z,11.82
2023-05-01T11:25:16.482Z,11.73
2023-05-01T11:26:17.068Z,11.79
2023-05-01T11:27:16.661Z,11.82
2023-05-01T11:28:17.229Z,11.86
2023-05-01T11:29:16.775Z,11.86
2023-05-01T11:30:16.367Z,11.88
2023-05-01T11:31:16.984Z,11.88
2023-05-01T11:32:17.366Z,11.86
2023-05-01T11:33:17.089Z,11.89
2023-05-01T11:34:16.768Z,11.86
2023-05-01T11:35:16.332Z,11.80
2023-05-01T11:36:16.877Z,11.80
2023-05-01T11:37:16.407Z,11.59
2023-05-01T11:38:16.945Z,11.62
2023-05-01T11:39:16.485Z,11.51
2023-05-01T11:40:17.064Z,11.44
2023-05-01T11:41:17.129Z,11.31
2023-05-01T11:42:16.764Z,11.33
2023-05-01T11:43:16.420Z,11.31
2023-05-01T11:44:17.015Z,11.30
2023-05-01T11:45:16.584Z,11.21
2023-05-01T11:46:17.192Z,11.24
2023-05-01T11:47:16.921Z,11.20
2023-05-01T11:48:16.534Z,11.18
2023-05-01T11:49:17.212Z,11.18
2023-05-01T11:50:16.826Z,11.26
2023-05-01T11:51:16.455Z,11.20
2023-05-01T11:52:17.104Z,11.31
2023-05-01T11:53:16.698Z,11.34
2023-05-01T11:54:17.312Z,11.31
2023-05-01T11:55:16.895Z,11.26
2023-05-01T11:56:25.802Z,11.26
2023-05-01T11:57:17.036Z,11.16
2023-05-01T11:58:16.620Z,11.18
2023-05-01T11:59:17.230Z,11.18
2023-05-01T12:00:16.861Z,11.27
2023-05-01T12:01:16.410Z,11.27
2023-05-01T12:02:16.959Z,11.37
2023-05-01T12:03:16.745Z,11.38
2023-05-01T12:04:16.814Z,11.41
2023-05-01T12:05:16.637Z,11.48
2023-05-01T12:06:17.184Z,11.51
2023-05-01T12:07:16.796Z,11.51
2023-05-01T12:08:16.344Z,11.47
2023-05-01T12:09:16.868Z,11.47
2023-05-01T12:10:16.419Z,11.58
2023-05-01T12:11:17.005Z,11.54
2023-05-01T12:12:16.997Z,11.50
2023-05-01T12:13:16.588Z,11.51
2023-05-01T12:14:17.205Z,11.43
2023-05-01T12:15:16.816Z,11.52
2023-05-01T12:16:16.353Z,11.51
2023-05-01T12:17:17.018Z,11.51
2023-05-01T12:18:16.791Z,11.52
2023-05-01T12:19:16.532Z,11.47
2023-05-01T12:20:17.123Z,11.44
2023-05-01T12:21:16.662Z,11.44
2023-05-01T12:22:16.491Z,11.43
2023-05-01T12:23:17.110Z,11.48
2023-05-01T12:24:16.765Z,11.52
2023-05-01T12:25:16.391Z,11.54
2023-05-01T12:26:16.950Z,11.44
2023-05-01T12:27:16.542Z,11.48
2023-05-01T12:28:17.121Z,11.41
2023-05-01T12:29:16.671Z,11.47
2023-05-01T12:30:17.259Z,11.61
2023-05-01T12:31:16.854Z,11.64
2023-05-01T12:32:17.392Z,11.68
2023-05-01T12:33:16.996Z,11.72
2023-05-01T12:34:16.595Z,11.62
2023-05-01T12:35:17.175Z,11.59
2023-05-01T12:36:16.739Z,11.61
2023-05-01T12:37:17.306Z,11.78
2023-05-01T12:38:16.892Z,11.78
2023-05-01T12:39:16.453Z,11.97
2023-05-01T12:40:17.023Z,12.04
2023-05-01T12:41:16.626Z,12.01
2023-05-01T12:42:17.125Z,12.08
2023-05-01T12:43:16.699Z,11.89
2023-05-01T12:44:17.248Z,11.92
2023-05-01T12:45:16.821Z,11.90
2023-05-01T12:46:16.370Z,11.71
2023-05-01T12:47:16.991Z,11.78
2023-05-01T12:48:16.559Z,11.88
2023-05-01T12:49:17.149Z,11.90
2023-05-01T12:50:16.699Z,11.97
2023-05-01T12:51:17.291Z,11.97
2023-05-01T12:52:16.831Z,11.94
2023-05-01T12:53:16.416Z,12.07
2023-05-01T12:54:16.988Z,12.04
2023-05-01T12:55:16.532Z,12.04
2023-05-01T12:56:17.112Z,12.16
2023-05-01T12:57:16.664Z,12.25
2023-05-01T12:58:17.266Z,12.30
2023-05-01T12:59:16.885Z,12.25
2023-05-01T13:00:16.443Z,12.25
2023-05-01T13:01:17.037Z,12.20
2023-05-01T13:02:17.096Z,12.32